Kilbourne, LA

4:48 PM CST on December 03, 2016 (GMT -0600)
Philley Ln. | | Change Station

Elev 111 ft 32.86 °N, 91.36 °W | Updated 31 seconds ago

Light Rain
Light Rain
46.5 °F
Feels Like 44 °F
N
5.0
Wind Variable Wind from NNE

Today
High -- | Low -- °F
--% Chance of Precip.
Yesterday
High -- | Low -- °F
Precip. -- in
Pressure 30.06 in
Visibility 7.0 miles
Clouds Scattered Clouds 600 ft
Scattered Clouds 1300 ft
Overcast 3900 ft
Windchill 44 °F
Dew Point 46 °F
Humidity 98%
Rainfall 0.27 in
Snow Depth Not available.
6:52 AM 4:58 PM
Waxing Crescent, 17% visible
METAR KBQP 032235Z AUTO 07007KT 7SM -RA SCT006 SCT013 OVC039 08/08 A3006 RMK AO2 P0014 T00820080
Pressure 30.06 in
Visibility 7.0 miles
Clouds Scattered Clouds 600 ft
Scattered Clouds 1300 ft
Overcast 3900 ft
Windchill 44 °F
Dew Point 46 °F
Humidity 98%
Rainfall 0.27 in
Snow Depth Not available.
6:52 AM 4:58 PM
Waxing Crescent, 17% visible
METAR KBQP 032235Z AUTO 07007KT 7SM -RA SCT006 SCT013 OVC039 08/08 A3006 RMK AO2 P0014 T00820080

10-Day Weather Forecast

Almanac

Astronomy

Dec. 03, 2016 Rise Set
Actual Time
Civil Twilight
Nautical Twilight
Astronomical Twilight
Moon
Length of Visible Light
Length of Day
Tomorrow will be .
, % of the Moon is Illuminated

Today's Extremes

State Highs State Lows

Community

WunderPhotos

Upload Photos

1,955,536 photos uploaded!

WunderBlog® & News

Nearby

Air Quality

  Air Quality AQ Index Pollutant
Not available.

Snow Depth

Station Depth Elevation

Earthquake Activity

City Distance Mag. Time & Date
Minimum magnitude displayed is 2.5.

Coastal Water Temperatures

Place Temperature

Stations

Nearby Weather Stations

Station Location Temp. Windchill Dew Point Humidity Wind Precip. Elev Updated Type
                   

Watches & Warnings

There are currently no watches in effect.